sensor_id;sensor_type;location;lat;lon;timestamp;pressure;altitude;pressure_sealevel;temperature;humidity
34921;BME280;21128;50.016;20.002;2023-02-01T00:00:32;98234.47;;;2.02;100.00
34921;BME280;21128;50.016;20.002;2023-02-01T00:03:21;98205.75;;;2.05;100.00
34921;BME280;21128;50.016;20.002;2023-02-01T00:05:55;98222.73;;;2.09;100.00
34921;BME280;21128;50.016;20.002;2023-02-01T00:08:23;98218.30;;;2.11;100.00
34921;BME280;21128;50.016;20.002;2023-02-01T00:11:05;98226.91;;;2.12;100.00
34921;BME280;21128;50.016;20.002;2023-02-01T00:13:35;98231.34;;;2.10;100.00
34921;BME280;21128;50.016;20.002;2023-02-01T00:16:09;98227.92;;;2.09;100.00
34921;BME280;21128;50.016;20.002;2023-02-01T00:18:37;98223.56;;;2.10;100.00
34921;BME280;21128;50.016;20.002;2023-02-01T00:21:04;98211.65;;;2.07;100.00
34921;BME280;21128;50.016;20.002;2023-02-01T00:23:33;98220.36;;;2.06;100.00
34921;BME280;21128;50.016;20.002;2023-02-01T00:26:05;98224.94;;;2.03;100.00
34921;BME280;21128;50.016;20.002;2023-02-01T00:28:33;98233.61;;;2.02;100.00
34921;BME280;21128;50.016;20.002;2023-02-01T00:31:02;98218.17;;;2.00;100.00
34921;BME280;21128;50.016;20.002;2023-02-01T00:33:30;98218.17;;;2.00;100.00
34921;BME280;21128;50.016;20.002;2023-02-01T00:36:00;98212.06;;;2.01;100.00
34921;BME280;21128;50.016;20.002;2023-02-01T00:38:28;98201.62;;;2.03;100.00
34921;BME280;21128;50.016;20.002;2023-02-01T00:41:06;98210.22;;;2.03;100.00
34921;BME280;21128;50.016;20.002;2023-02-01T00:43:34;98203.98;;;2.06;100.00
34921;BME280;21128;50.016;20.002;2023-02-01T00:46:01;98200.45;;;2.07;100.00
34921;BME280;21128;50.016;20.002;2023-02-01T00:48:29;98192.58;;;2.08;100.00
34921;BME280;21128;50.016;20.002;2023-02-01T00:51:01;98207.94;;;2.11;100.00
34921;BME280;21128;50.016;20.002;2023-02-01T00:53:29;98196.52;;;2.14;100.00
34921;BME280;21128;50.016;20.002;2023-02-01T00:55:57;98200.77;;;2.15;100.00
34921;BME280;21128;50.016;20.002;2023-02-01T00:58:25;98199.83;;;2.16;100.00
34921;BME280;21128;50.016;20.002;2023-02-01T01:01:11;98205.02;;;2.16;100.00
34921;BME280;21128;50.016;20.002;2023-02-01T01:03:41;98205.02;;;2.16;100.00
34921;BME280;21128;50.016;20.002;2023-02-01T01:06:11;98202.31;;;2.17;100.00
34921;BME280;21128;50.016;20.002;2023-02-01T01:08:39;98205.84;;;2.16;100.00
34921;BME280;21128;50.016;20.002;2023-02-01T01:11:12;98210.08;;;2.17;100.00
34921;BME280;21128;50.016;20.002;2023-02-01T01:13:40;98207.60;;;2.16;100.00
34921;BME280;21128;50.016;20.002;2023-02-01T01:16:09;98202.42;;;2.16;100.00
34921;BME280;21128;50.016;20.002;2023-02-01T01:18:38;98210.00;;;2.19;100.00
34921;BME280;21128;50.016;20.002;2023-02-01T01:21:07;98216.63;;;2.23;100.00
34921;BME280;21128;50.016;20.002;2023-02-01T01:23:35;98218.28;;;2.24;100.00
34921;BME280;21128;50.016;20.002;2023-02-01T01:26:07;98221.28;;;2.31;100.00
34921;BME280;21128;50.016;20.002;2023-02-01T01:28:34;98227.00;;;2.36;100.00
34921;BME280;21128;50.016;20.002;2023-02-01T01:31:02;98232.90;;;2.38;100.00
34921;BME280;21128;50.016;20.002;2023-02-01T01:33:29;98225.72;;;2.41;100.00
34921;BME280;21128;50.016;20.002;2023-02-01T01:35:56;98212.64;;;2.43;100.00
34921;BME280;21128;50.016;20.002;2023-02-01T01:38:23;98270.52;;;2.43;100.00
34921;BME280;21128;50.016;20.002;2023-02-01T01:40:50;98225.95;;;2.38;100.00
34921;BME280;21128;50.016;20.002;2023-02-01T01:43:19;98240.78;;;2.36;100.00
34921;BME280;21128;50.016;20.002;2023-02-01T01:45:49;98242.63;;;2.34;100.00
34921;BME280;21128;50.016;20.002;2023-02-01T01:48:28;98231.77;;;2.29;100.00
34921;BME280;21128;50.016;20.002;2023-02-01T01:51:17;98241.30;;;2.16;100.00
34921;BME280;21128;50.016;20.002;2023-02-01T01:53:54;98250.02;;;2.02;100.00
34921;BME280;21128;50.016;20.002;2023-02-01T01:56:24;98243.77;;;1.92;100.00
34921;BME280;21128;50.016;20.002;2023-02-01T01:58:52;98228.02;;;1.82;100.00
34921;BME280;21128;50.016;20.002;2023-02-01T02:01:20;98234.13;;;1.81;100.00
34921;BME280;21128;50.016;20.002;2023-02-01T02:03:47;98234.24;;;1.80;100.00
34921;BME280;21128;50.016;20.002;2023-02-01T02:09:01;98224.70;;;1.80;100.00
34921;BME280;21128;50.016;20.002;2023-02-01T02:11:28;98221.18;;;1.81;100.00
34921;BME280;21128;50.016;20.002;2023-02-01T02:13:56;98235.89;;;1.81;100.00
34921;BME280;21128;50.016;20.002;2023-02-01T02:35:37;98274.86;;;1.92;100.00
34921;BME280;21128;50.016;20.002;2023-02-01T02:46:37;98262.23;;;1.87;100.00
34921;BME280;21128;50.016;20.002;2023-02-01T02:49:34;98267.59;;;1.84;100.00
34921;BME280;21128;50.016;20.002;2023-02-01T02:52:09;98265.22;;;1.81;100.00
34921;BME280;21128;50.016;20.002;2023-02-01T02:54:59;98276.52;;;1.80;100.00
34921;BME280;21128;50.016;20.002;2023-02-01T02:57:36;98278.39;;;1.78;100.00
34921;BME280;21128;50.016;20.002;2023-02-01T03:00:27;98292.34;;;1.76;100.00
34921;BME280;21128;50.016;20.002;2023-02-01T03:03:14;98282.09;;;1.74;100.00
34921;BME280;21128;50.016;20.002;2023-02-01T03:06:01;98291.73;;;1.72;100.00
34921;BME280;21128;50.016;20.002;2023-02-01T03:08:29;98288.41;;;1.70;100.00
34921;BME280;21128;50.016;20.002;2023-02-01T03:11:06;98287.66;;;1.68;100.00
34921;BME280;21128;50.016;20.002;2023-02-01T03:16:20;98280.21;;;1.63;100.00
34921;BME280;21128;50.016;20.002;2023-02-01T03:19:32;98301.97;;;1.61;100.00
34921;BME280;21128;50.016;20.002;2023-02-01T03:22:06;98298.63;;;1.59;100.00
34921;BME280;21128;50.016;20.002;2023-02-01T03:24:39;98311.57;;;1.59;100.00
34921;BME280;21128;50.016;20.002;2023-02-01T03:30:21;98311.88;;;1.54;100.00
34921;BME280;21128;50.016;20.002;2023-02-01T03:32:51;98317.89;;;1.55;100.00
34921;BME280;21128;50.016;20.002;2023-02-01T03:35:33;98318.72;;;1.55;100.00
34921;BME280;21128;50.016;20.002;2023-02-01T03:41:05;98334.36;;;1.54;100.00
34921;BME280;21128;50.016;20.002;2023-02-01T03:43:43;98327.59;;;1.51;100.00
34921;BME280;21128;50.016;20.002;2023-02-01T03:46:19;98331.11;;;1.50;100.00
34921;BME280;21128;50.016;20.002;2023-02-01T03:48:48;98332.16;;;1.48;100.00
34921;BME280;21128;50.016;20.002;2023-02-01T03:51:17;98323.66;;;1.46;100.00
34921;BME280;21128;50.016;20.002;2023-02-01T03:53:47;98344.38;;;1.46;100.00
34921;BME280;21128;50.016;20.002;2023-02-01T03:56:18;98344.48;;;1.44;100.00
34921;BME280;21128;50.016;20.002;2023-02-01T03:58:47;98345.48;;;1.41;100.00
34921;BME280;21128;50.016;20.002;2023-02-01T04:01:27;98336.05;;;1.40;100.00
34921;BME280;21128;50.016;20.002;2023-02-01T04:03:56;98335.22;;;1.40;100.00
34921;BME280;21128;50.016;20.002;2023-02-01T04:06:24;98336.26;;;1.37;100.00
34921;BME280;21128;50.016;20.002;2023-02-01T04:08:52;98338.95;;;1.36;100.00
34921;BME280;21128;50.016;20.002;2023-02-01T04:11:19;98336.44;;;1.34;100.00
34921;BME280;21128;50.016;20.002;2023-02-01T04:13:46;98333.84;;;1.34;100.00
34921;BME280;21128;50.016;20.002;2023-02-01T04:16:12;98329.70;;;1.32;100.00
34921;BME280;21128;50.016;20.002;2023-02-01T04:18:39;98334.05;;;1.31;100.00
34921;BME280;21128;50.016;20.002;2023-02-01T04:21:06;98328.87;;;1.31;100.00
34921;BME280;21128;50.016;20.002;2023-02-01T04:23:34;98329.80;;;1.30;100.00
34921;BME280;21128;50.016;20.002;2023-02-01T04:26:03;98332.49;;;1.29;100.00
34921;BME280;21128;50.016;20.002;2023-02-01T04:28:31;98336.01;;;1.28;100.00
34921;BME280;21128;50.016;20.002;2023-02-01T04:30:58;98348.19;;;1.26;100.00
34921;BME280;21128;50.016;20.002;2023-02-01T04:33:25;98346.64;;;1.23;100.00
34921;BME280;21128;50.016;20.002;2023-02-01T04:35:52;98339.80;;;1.22;100.00
34921;BME280;21128;50.016;20.002;2023-02-01T04:38:19;98335.56;;;1.21;100.00
34921;BME280;21128;50.016;20.002;2023-02-01T04:40:47;98348.70;;;1.18;100.00
34921;BME280;21128;50.016;20.002;2023-02-01T04:43:16;98343.59;;;1.17;100.00
34921;BME280;21128;50.016;20.002;2023-02-01T04:45:48;98343.69;;;1.15;100.00
34921;BME280;21128;50.016;20.002;2023-02-01T04:48:17;98344.73;;;1.12;100.00
34921;BME280;21128;50.016;20.002;2023-02-01T04:50:48;98355.28;;;1.09;100.00
34921;BME280;21128;50.016;20.002;2023-02-01T04:53:15;98351.93;;;1.07;100.00
34921;BME280;21128;50.016;20.002;2023-02-01T04:55:43;98354.52;;;1.07;100.00
34921;BME280;21128;50.016;20.002;2023-02-01T04:58:10;98357.94;;;1.08;100.00
34921;BME280;21128;50.016;20.002;2023-02-01T05:00:38;98352.59;;;1.11;100.00
34921;BME280;21128;50.016;20.002;2023-02-01T05:03:05;98353.22;;;1.15;100.00
34921;BME280;21128;50.016;20.002;2023-02-01T05:05:32;98361.70;;;1.17;100.00
34921;BME280;21128;50.016;20.002;2023-02-01T05:07:59;98363.37;;;1.18;100.00
34921;BME280;21128;50.016;20.002;2023-02-01T05:10:26;98360.71;;;1.19;100.00
34921;BME280;21128;50.016;20.002;2023-02-01T05:12:53;98365.89;;;1.19;100.00
34921;BME280;21128;50.016;20.002;2023-02-01T05:15:39;98352.12;;;1.19;100.00
34921;BME280;21128;50.016;20.002;2023-02-01T05:18:06;98352.95;;;1.19;100.00
34921;BME280;21128;50.016;20.002;2023-02-01T05:20:33;98351.19;;;1.20;100.00
34921;BME280;21128;50.016;20.002;2023-02-01T05:23:00;98345.91;;;1.21;100.00
34921;BME280;21128;50.016;20.002;2023-02-01T05:25:27;98358.95;;;1.20;100.00
34921;BME280;21128;50.016;20.002;2023-02-01T05:27:54;98347.77;;;1.19;100.00
34921;BME280;21128;50.016;20.002;2023-02-01T05:30:22;98352.19;;;1.17;100.00
34921;BME280;21128;50.016;20.002;2023-02-01T05:32:51;98343.69;;;1.15;100.00
34921;BME280;21128;50.016;20.002;2023-02-01T05:35:18;98343.59;;;1.17;100.00
34921;BME280;21128;50.016;20.002;2023-02-01T05:37:46;98349.59;;;1.17;100.00
34921;BME280;21128;50.016;20.002;2023-02-01T05:40:13;98353.95;;;1.17;100.00
34921;BME280;21128;50.016;20.002;2023-02-01T05:42:40;98353.22;;;1.15;100.00
34921;BME280;21128;50.016;20.002;2023-02-01T05:45:08;98341.20;;;1.13;100.00
34921;BME280;21128;50.016;20.002;2023-02-01T05:47:35;98341.31;;;1.12;100.00
34921;BME280;21128;50.016;20.002;2023-02-01T05:50:03;98348.97;;;1.13;100.00
34921;BME280;21128;50.016;20.002;2023-02-01T05:52:31;98348.97;;;1.13;100.00
34921;BME280;21128;50.016;20.002;2023-02-01T05:54:59;98343.69;;;1.15;100.00
34921;BME280;21128;50.016;20.002;2023-02-01T05:57:26;98337.59;;;1.16;100.00
34921;BME280;21128;50.016;20.002;2023-02-01T05:59:53;98330.59;;;1.18;100.00
34921;BME280;21128;50.016;20.002;2023-02-01T06:02:20;98320.96;;;1.20;100.00
34921;BME280;21128;50.016;20.002;2023-02-01T06:04:48;98338.87;;;1.23;100.00
34921;BME280;21128;50.016;20.002;2023-02-01T06:07:15;98330.08;;;1.26;100.00
34921;BME280;21128;50.016;20.002;2023-02-01T06:09:43;98326.48;;;1.28;100.00
34921;BME280;21128;50.016;20.002;2023-02-01T06:12:10;98326.18;;;1.33;100.00
34921;BME280;21128;50.016;20.002;2023-02-01T06:14:37;98327.66;;;1.37;100.00
34921;BME280;21128;50.016;20.002;2023-02-01T06:17:04;98328.19;;;1.42;100.00
34921;BME280;21128;50.016;20.002;2023-02-01T06:19:32;98322.00;;;1.45;100.00
34921;BME280;21128;50.016;20.002;2023-02-01T06:21:59;98317.45;;;1.48;100.00
34921;BME280;21128;50.016;20.002;2023-02-01T06:24:26;98318.09;;;1.52;100.00
34921;BME280;21128;50.016;20.002;2023-02-01T06:26:53;98322.24;;;1.54;100.00
34921;BME280;21128;50.016;20.002;2023-02-01T06:29:21;98324.52;;;1.59;100.00
34921;BME280;21128;50.016;20.002;2023-02-01T06:31:48;98330.14;;;1.65;100.00
34921;BME280;21128;50.016;20.002;2023-02-01T06:34:15;98323.75;;;1.71;100.00
34921;BME280;21128;50.016;20.002;2023-02-01T06:36:42;98324.26;;;1.76;100.00
34921;BME280;21128;50.016;20.002;2023-02-01T06:39:09;98331.64;;;1.82;100.00
34921;BME280;21128;50.016;20.002;2023-02-01T06:41:36;98332.91;;;1.89;100.00
34921;BME280;21128;50.016;20.002;2023-02-01T06:44:03;98331.58;;;1.96;100.00
34921;BME280;21128;50.016;20.002;2023-02-01T06:46:30;98335.44;;;2.04;100.00
34921;BME280;21128;50.016;20.002;2023-02-01T06:49:00;98338.35;;;2.12;100.00
34921;BME280;21128;50.016;20.002;2023-02-01T06:51:27;98322.37;;;2.18;100.00
34921;BME280;21128;50.016;20.002;2023-02-01T06:53:58;98317.61;;;2.24;100.00
34921;BME280;21128;50.016;20.002;2023-02-01T06:56:26;98321.67;;;2.29;100.00
34921;BME280;21128;50.016;20.002;2023-02-01T06:58:53;98327.47;;;2.32;100.00
34921;BME280;21128;50.016;20.002;2023-02-01T07:01:20;98325.41;;;2.37;100.00
34921;BME280;21128;50.016;20.002;2023-02-01T07:03:50;98330.38;;;2.40;100.00
34921;BME280;21128;50.016;20.002;2023-02-01T07:06:18;98324.15;;;2.43;100.00
34921;BME280;21128;50.016;20.002;2023-02-01T07:08:46;98324.90;;;2.45;100.00
34921;BME280;21128;50.016;20.002;2023-02-01T07:11:14;98330.58;;;2.50;100.00
34921;BME280;21128;50.016;20.002;2023-02-01T07:13:42;98326.97;;;2.52;100.00
34921;BME280;21128;50.016;20.002;2023-02-01T07:16:12;98331.22;;;2.53;100.00
34921;BME280;21128;50.016;20.002;2023-02-01T07:18:39;98330.06;;;2.58;100.00
34921;BME280;21128;50.016;20.002;2023-02-01T07:21:07;98318.75;;;2.59;100.00
34921;BME280;21128;50.016;20.002;2023-02-01T07:23:34;98329.88;;;2.61;100.00
34921;BME280;21128;50.016;20.002;2023-02-01T07:26:04;98320.11;;;2.64;100.00
34921;BME280;21128;50.016;20.002;2023-02-01T07:28:34;98326.84;;;2.67;100.00
34921;BME280;21128;50.016;20.002;2023-02-01T07:31:09;98313.88;;;2.67;100.00
34921;BME280;21128;50.016;20.002;2023-02-01T07:33:37;98307.66;;;2.69;100.00
34921;BME280;21128;50.016;20.002;2023-02-01T07:36:06;98305.90;;;2.70;100.00
34921;BME280;21128;50.016;20.002;2023-02-01T07:38:33;98306.61;;;2.72;100.00
34921;BME280;21128;50.016;20.002;2023-02-01T07:41:03;98307.44;;;2.72;100.00
34921;BME280;21128;50.016;20.002;2023-02-01T07:43:31;98303.69;;;2.76;100.00
34921;BME280;21128;50.016;20.002;2023-02-01T07:46:00;98303.69;;;2.76;100.00
34921;BME280;21128;50.016;20.002;2023-02-01T07:48:29;98297.48;;;2.79;100.00
34921;BME280;21128;50.016;20.002;2023-02-01T07:51:01;98297.36;;;2.80;100.00
34921;BME280;21128;50.016;20.002;2023-02-01T07:53:31;98300.67;;;2.82;100.00
34921;BME280;21128;50.016;20.002;2023-02-01T07:55:59;98294.43;;;2.85;100.00
34921;BME280;21128;50.016;20.002;2023-02-01T07:58:27;98298.48;;;2.89;100.00
34921;BME280;21128;50.016;20.002;2023-02-01T08:00:55;98298.38;;;2.91;100.00
34921;BME280;21128;50.016;20.002;2023-02-01T08:03:41;98300.74;;;2.94;100.00
34921;BME280;21128;50.016;20.002;2023-02-01T08:06:11;98298.67;;;2.99;100.00
34921;BME280;21128;50.016;20.002;2023-02-01T08:08:40;98301.15;;;3.00;100.00
34921;BME280;21128;50.016;20.002;2023-02-01T08:11:09;98307.80;;;3.04;100.00
34921;BME280;21128;50.016;20.002;2023-02-01T08:13:36;98308.40;;;3.08;100.00
34921;BME280;21128;50.016;20.002;2023-02-01T08:16:05;98302.07;;;3.12;100.00
34921;BME280;21128;50.016;20.002;2023-02-01T08:18:34;98297.48;;;3.16;100.00
34921;BME280;21128;50.016;20.002;2023-02-01T08:21:07;98308.37;;;3.21;100.00
34921;BME280;21128;50.016;20.002;2023-02-01T08:23:36;98297.77;;;3.24;100.00
34921;BME280;21128;50.016;20.002;2023-02-01T08:28:31;98299.11;;;3.29;100.00
34921;BME280;21128;50.016;20.002;2023-02-01T08:30:59;98303.23;;;3.32;100.00
34921;BME280;21128;50.016;20.002;2023-02-01T08:33:30;98303.95;;;3.34;100.00
34921;BME280;21128;50.016;20.002;2023-02-01T08:35:57;98315.91;;;3.36;100.00
34921;BME280;21128;50.016;20.002;2023-02-01T08:38:24;98301.87;;;3.39;100.00
34921;BME280;21128;50.016;20.002;2023-02-01T08:40:50;98300.80;;;3.42;100.00
34921;BME280;21128;50.016;20.002;2023-02-01T08:43:18;98298.92;;;3.44;100.00
34921;BME280;21128;50.016;20.002;2023-02-01T08:45:46;98300.58;;;3.45;100.00
34921;BME280;21128;50.016;20.002;2023-02-01T08:48:13;98315.13;;;3.47;100.00
34921;BME280;21128;50.016;20.002;2023-02-01T08:50:40;98309.70;;;3.50;100.00
34921;BME280;21128;50.016;20.002;2023-02-01T08:53:07;98320.72;;;3.54;100.00
34921;BME280;21128;50.016;20.002;2023-02-01T08:55:34;98312.93;;;3.54;100.00
34921;BME280;21128;50.016;20.002;2023-02-01T08:58:01;98312.70;;;3.57;100.00
34921;BME280;21128;50.016;20.002;2023-02-01T09:00:28;98299.47;;;3.60;100.00
34921;BME280;21128;50.016;20.002;2023-02-01T09:02:55;98307.06;;;3.63;100.00
34921;BME280;21128;50.016;20.002;2023-02-01T09:05:22;98298.09;;;3.67;100.00
34921;BME280;21128;50.016;20.002;2023-02-01T09:07:53;98307.42;;;3.70;100.00
34921;BME280;21128;50.016;20.002;2023-02-01T09:10:20;98294.22;;;3.73;100.00
34921;BME280;21128;50.016;20.002;2023-02-01T09:12:47;98291.51;;;3.74;100.00
34921;BME280;21128;50.016;20.002;2023-02-01T09:15:14;98287.73;;;3.78;100.00
34921;BME280;21128;50.016;20.002;2023-02-01T09:17:41;98301.46;;;3.80;100.00
34921;BME280;21128;50.016;20.002;2023-02-01T09:20:10;98289.41;;;3.79;100.00
34921;BME280;21128;50.016;20.002;2023-02-01T09:22:38;98286.70;;;3.81;100.00
34921;BME280;21128;50.016;20.002;2023-02-01T09:25:06;98278.19;;;3.79;100.00
34921;BME280;21128;50.016;20.002;2023-02-01T09:27:33;98272.05;;;3.80;100.00
34921;BME280;21128;50.016;20.002;2023-02-01T09:30:01;98272.31;;;3.88;100.00
34921;BME280;21128;50.016;20.002;2023-02-01T09:32:28;98273.27;;;3.98;100.00
34921;BME280;21128;50.016;20.002;2023-02-01T09:34:55;98267.84;;;4.01;100.00
34921;BME280;21128;50.016;20.002;2023-02-01T09:37:22;98262.19;;;4.07;100.00
34921;BME280;21128;50.016;20.002;2023-02-01T09:39:49;98264.09;;;4.16;100.00
34921;BME280;21128;50.016;20.002;2023-02-01T09:48:02;98274.53;;;4.50;98.03
34921;BME280;21128;50.016;20.002;2023-02-01T09:50:52;98265.41;;;4.44;99.07
34921;BME280;21128;50.016;20.002;2023-02-01T09:53:34;98265.31;;;4.46;100.00
34921;BME280;21128;50.016;20.002;2023-02-01T09:56:07;98265.89;;;4.49;99.51
34921;BME280;21128;50.016;20.002;2023-02-01T10:01:30;98271.34;;;4.46;99.70
34921;BME280;21128;50.016;20.002;2023-02-01T10:04:05;98294.14;;;4.43;98.63
34921;BME280;21128;50.016;20.002;2023-02-01T10:09:33;98281.59;;;4.26;100.00
34921;BME280;21128;50.016;20.002;2023-02-01T10:18:03;98277.20;;;4.04;100.00
34921;BME280;21128;50.016;20.002;2023-02-01T10:23:10;98273.98;;;4.00;100.00
34921;BME280;21128;50.016;20.002;2023-02-01T10:28:33;98278.68;;;3.95;100.00
34921;BME280;21128;50.016;20.002;2023-02-01T10:31:03;98273.25;;;3.87;100.00
34921;BME280;21128;50.016;20.002;2023-02-01T10:33:33;98261.53;;;3.81;100.00
34921;BME280;21128;50.016;20.002;2023-02-01T10:36:13;98254.06;;;3.77;100.00
34921;BME280;21128;50.016;20.002;2023-02-01T10:38:44;98265.64;;;3.73;100.00
34921;BME280;21128;50.016;20.002;2023-02-01T10:41:12;98255.25;;;3.73;100.00
34921;BME280;21128;50.016;20.002;2023-02-01T10:43:41;98255.57;;;3.68;100.00
34921;BME280;21128;50.016;20.002;2023-02-01T10:46:09;98264.31;;;3.67;100.00
34921;BME280;21128;50.016;20.002;2023-02-01T10:48:37;98254.98;;;3.64;100.00
34921;BME280;21128;50.016;20.002;2023-02-01T10:51:21;98257.91;;;3.60;100.00
34921;BME280;21128;50.016;20.002;2023-02-01T10:53:55;98239.84;;;3.58;100.00
34921;BME280;21128;50.016;20.002;2023-02-01T10:56:24;98255.42;;;3.58;100.00
34921;BME280;21128;50.016;20.002;2023-02-01T10:59:03;98246.09;;;3.56;100.00
34921;BME280;21128;50.016;20.002;2023-02-01T11:01:36;98249.64;;;3.55;100.00
34921;BME280;21128;50.016;20.002;2023-02-01T11:04:05;98247.25;;;3.52;100.00
34921;BME280;21128;50.016;20.002;2023-02-01T11:06:35;98245.71;;;3.49;100.00
34921;BME280;21128;50.016;20.002;2023-02-01T11:16:58;98213.86;;;3.58;100.00
34921;BME280;21128;50.016;20.002;2023-02-01T11:19:25;98229.56;;;3.57;100.00
34921;BME280;21128;50.016;20.002;2023-02-01T11:21:55;98218.47;;;3.55;100.00
34921;BME280;21128;50.016;20.002;2023-02-01T11:27:01;98225.37;;;3.43;100.00
34921;BME280;21128;50.016;20.002;2023-02-01T11:29:41;98256.54;;;3.43;100.00
34921;BME280;21128;50.016;20.002;2023-02-01T11:32:11;98228.70;;;3.45;100.00
34921;BME280;21128;50.016;20.002;2023-02-01T11:34:49;98235.55;;;3.46;100.00
34921;BME280;21128;50.016;20.002;2023-02-01T11:37:26;98224.55;;;3.43;100.00
34921;BME280;21128;50.016;20.002;2023-02-01T11:39:59;98213.12;;;3.45;100.00
34921;BME280;21128;50.016;20.002;2023-02-01T11:42:28;98226.20;;;3.44;100.00
34921;BME280;21128;50.016;20.002;2023-02-01T11:47:41;98222.56;;;3.46;100.00
34921;BME280;21128;50.016;20.002;2023-02-01T11:50:16;98218.08;;;3.48;100.00
34921;BME280;21128;50.016;20.002;2023-02-01T11:52:56;98224.22;;;3.47;100.00
34921;BME280;21128;50.016;20.002;2023-02-01T11:58:17;98205.59;;;3.53;100.00
34921;BME280;21128;50.016;20.002;2023-02-01T12:17:46;98186.38;;;3.32;100.00
34921;BME280;21128;50.016;20.002;2023-02-01T12:20:33;98174.34;;;3.31;100.00
34921;BME280;21128;50.016;20.002;2023-02-01T12:23:25;98181.19;;;3.32;100.00
34921;BME280;21128;50.016;20.002;2023-02-01T12:40:20;98154.85;;;3.72;100.00
34921;BME280;21128;50.016;20.002;2023-02-01T12:45:49;98157.21;;;3.75;100.00
34921;BME280;21128;50.016;20.002;2023-02-01T12:51:05;98163.59;;;3.71;100.00
34921;BME280;21128;50.016;20.002;2023-02-01T12:56:39;98147.18;;;3.70;100.00
34921;BME280;21128;50.016;20.002;2023-02-01T12:59:19;98161.91;;;3.70;100.00
34921;BME280;21128;50.016;20.002;2023-02-01T13:01:59;98141.37;;;3.66;100.00
34921;BME280;21128;50.016;20.002;2023-02-01T13:07:12;98140.42;;;3.67;100.00
34921;BME280;21128;50.016;20.002;2023-02-01T13:15:02;98146.32;;;3.70;100.00
34921;BME280;21128;50.016;20.002;2023-02-01T13:17:33;98131.47;;;3.72;100.00
34921;BME280;21128;50.016;20.002;2023-02-01T13:23:31;98133.45;;;3.68;100.00
34921;BME280;21128;50.016;20.002;2023-02-01T13:26:00;98130.98;;;3.66;100.00
34921;BME280;21128;50.016;20.002;2023-02-01T13:28:46;98124.01;;;3.67;100.00
34921;BME280;21128;50.016;20.002;2023-02-01T13:31:38;98119.52;;;3.69;100.00
34921;BME280;21128;50.016;20.002;2023-02-01T13:42:28;98120.95;;;3.73;100.00
34921;BME280;21128;50.016;20.002;2023-02-01T13:45:03;98103.59;;;3.74;100.00
34921;BME280;21128;50.016;20.002;2023-02-01T13:47:42;98102.64;;;3.75;100.00
34921;BME280;21128;50.016;20.002;2023-02-01T13:52:53;98118.69;;;3.68;100.00
34921;BME280;21128;50.016;20.002;2023-02-01T13:57:51;98110.44;;;3.63;100.00
34921;BME280;21128;50.016;20.002;2023-02-01T14:00:31;98111.38;;;3.62;100.00
34921;BME280;21128;50.016;20.002;2023-02-01T14:13:39;98102.77;;;3.62;100.00
34921;BME280;21128;50.016;20.002;2023-02-01T14:16:12;98092.95;;;3.65;100.00
34921;BME280;21128;50.016;20.002;2023-02-01T14:21:30;98095.09;;;3.72;100.00
34921;BME280;21128;50.016;20.002;2023-02-01T14:26:48;98096.74;;;3.73;100.00
34921;BME280;21128;50.016;20.002;2023-02-01T14:37:06;98075.25;;;3.71;100.00
34921;BME280;21128;50.016;20.002;2023-02-01T14:50:44;98082.56;;;3.54;100.00
34921;BME280;21128;50.016;20.002;2023-02-01T15:00:49;98087.47;;;3.35;100.00
34921;BME280;21128;50.016;20.002;2023-02-01T15:05:56;98112.71;;;3.22;100.00
34921;BME280;21128;50.016;20.002;2023-02-01T15:08:28;98095.93;;;3.15;100.00
34921;BME280;21128;50.016;20.002;2023-02-01T15:10:58;98097.44;;;3.06;100.00
34921;BME280;21128;50.016;20.002;2023-02-01T15:13:27;98112.13;;;2.94;100.00
34921;BME280;21128;50.016;20.002;2023-02-01T15:16:02;98110.83;;;2.89;100.00
34921;BME280;21128;50.016;20.002;2023-02-01T15:18:30;98105.56;;;2.77;100.00
34921;BME280;21128;50.016;20.002;2023-02-01T15:21:00;98119.98;;;2.58;100.00
34921;BME280;21128;50.016;20.002;2023-02-01T15:23:28;98104.96;;;2.50;100.00
34921;BME280;21128;50.016;20.002;2023-02-01T15:25:56;98110.49;;;2.45;100.00
34921;BME280;21128;50.016;20.002;2023-02-01T15:28:23;98106.45;;;2.41;100.00
34921;BME280;21128;50.016;20.002;2023-02-01T15:30:59;98110.09;;;2.39;100.00
34921;BME280;21128;50.016;20.002;2023-02-01T15:33:27;98126.91;;;2.33;100.00
34921;BME280;21128;50.016;20.002;2023-02-01T15:38:40;98114.39;;;2.27;100.00
34921;BME280;21128;50.016;20.002;2023-02-01T15:41:23;98130.85;;;2.26;100.00
34921;BME280;21128;50.016;20.002;2023-02-01T15:46:35;98136.48;;;2.20;100.00
34921;BME280;21128;50.016;20.002;2023-02-01T15:49:03;98130.67;;;2.16;100.00
34921;BME280;21128;50.016;20.002;2023-02-01T15:51:32;98137.62;;;2.16;100.00
34921;BME280;21128;50.016;20.002;2023-02-01T15:54:03;98131.61;;;2.15;100.00
34921;BME280;21128;50.016;20.002;2023-02-01T15:56:40;98129.13;;;2.14;100.00
34921;BME280;21128;50.016;20.002;2023-02-01T15:59:16;98140.55;;;2.11;100.00
34921;BME280;21128;50.016;20.002;2023-02-01T16:01:44;98145.09;;;2.08;100.00
34921;BME280;21128;50.016;20.002;2023-02-01T16:04:19;98152.98;;;2.06;100.00
34921;BME280;21128;50.016;20.002;2023-02-01T16:06:58;98138.48;;;2.04;100.00
34921;BME280;21128;50.016;20.002;2023-02-01T16:09:40;98154.86;;;2.04;100.00
34921;BME280;21128;50.016;20.002;2023-02-01T16:12:28;98146.26;;;2.04;100.00
34921;BME280;21128;50.016;20.002;2023-02-01T16:14:57;98162.52;;;2.06;100.00
34921;BME280;21128;50.016;20.002;2023-02-01T16:17:24;98152.88;;;2.08;100.00
34921;BME280;21128;50.016;20.002;2023-02-01T16:19:51;98149.27;;;2.10;100.00
34921;BME280;21128;50.016;20.002;2023-02-01T16:22:18;98156.09;;;2.11;100.00
34921;BME280;21128;50.016;20.002;2023-02-01T16:24:45;98144.80;;;2.12;100.00